Time;durP1;ratioP1;P1;durP2;ratioP2;P2;SDS_P1;SDS_P2;PMS_P1;PMS_P2;Temp;Humidity;BMP_temperature;BMP_pressure;BME280_temperature;BME280_humidity;BME280_pressure;Samples;Min_cycle;Max_cycle;Signal;HPM_P1;HPM_P2
2020/12/09 00:02:07;;;;;;;32.25;11.65;;;8.90;89.80;;;;;;5018051;28;20073;-50
2020/12/09 00:04:33;;;;;;;28.13;11.02;;;8.90;89.60;;;;;;5023007;28;20030;-50
2020/12/09 00:06:59;;;;;;;31.63;10.93;;;8.80;89.60;;;;;;5024853;28;20413;-50
2020/12/09 00:09:25;;;;;;;26.10;11.15;;;8.90;89.60;;;;;;5035743;28;20041;-50
2020/12/09 00:11:54;;;;;;;29.50;10.05;;;8.80;89.50;;;;;;5028990;28;20075;-50
2020/12/09 00:14:21;;;;;;;30.58;10.32;;;8.90;89.60;;;;;;5025714;28;20033;-50
2020/12/09 00:16:48;;;;;;;32.80;11.65;;;8.90;89.60;;;;;;5034555;28;20480;-50
2020/12/09 00:19:13;;;;;;;32.60;10.95;;;8.80;89.60;;;;;;5035234;28;20022;-49
2020/12/09 00:21:39;;;;;;;26.83;9.40;;;8.90;89.80;;;;;;5034956;28;20024;-49
2020/12/09 00:24:05;;;;;;;30.25;11.13;;;8.80;89.60;;;;;;5033754;28;20071;-50
2020/12/09 00:26:32;;;;;;;24.95;9.75;;;8.90;89.60;;;;;;5035068;28;20372;-50
2020/12/09 00:28:58;;;;;;;24.63;10.45;;;8.80;89.60;;;;;;5031790;28;20026;-50
2020/12/09 00:31:27;;;;;;;26.95;9.43;;;8.90;89.70;;;;;;5018237;28;20022;-50
2020/12/09 00:33:53;;;;;;;30.80;10.93;;;8.90;89.70;;;;;;5030903;28;20033;-50
2020/12/09 00:36:20;;;;;;;28.10;11.45;;;8.90;89.60;;;;;;5034975;28;20042;-49
2020/12/09 00:38:47;;;;;;;26.67;10.68;;;8.90;89.80;;;;;;5034735;28;20358;-50
2020/12/09 00:41:21;;;;;;;29.73;12.20;;;8.80;89.60;;;;;;5033663;28;20389;-50
2020/12/09 00:43:47;;;;;;;28.92;10.35;;;8.80;89.60;;;;;;5030479;28;20340;-49
2020/12/09 00:46:21;;;;;;;32.47;11.02;;;8.90;89.60;;;;;;5024863;28;20367;-50
2020/12/09 00:48:47;;;;;;;28.02;10.65;;;8.80;89.60;;;;;;5014626;28;20109;-50
2020/12/09 00:51:18;;;;;;;26.23;10.38;;;8.90;89.80;;;;;;5024915;28;20030;-50
2020/12/09 00:53:44;;;;;;;;;;;8.90;89.80;;;;;;5031009;28;20033;-50
2020/12/09 00:56:10;;;;;;;29.98;9.70;;;8.80;89.80;;;;;;5034611;28;19936;-50
2020/12/09 00:58:36;;;;;;;29.27;9.85;;;8.80;89.60;;;;;;5027868;28;20100;-50
2020/12/09 01:01:09;;;;;;;26.88;10.25;;;8.90;89.70;;;;;;5045445;28;20029;-50
2020/12/09 01:03:36;;;;;;;27.63;9.35;;;8.80;89.60;;;;;;5032466;28;20451;-50
2020/12/09 01:06:06;;;;;;;28.17;10.05;;;8.90;89.80;;;;;;5026281;28;20038;-50
2020/12/09 01:08:32;;;;;;;27.33;10.57;;;8.90;89.60;;;;;;5032653;28;20026;-50
2020/12/09 01:10:58;;;;;;;32.85;10.70;;;8.80;89.60;;;;;;5026278;28;20025;-50
2020/12/09 01:13:24;;;;;;;34.08;10.75;;;8.90;89.70;;;;;;5021664;28;20079;-50
2020/12/09 01:15:50;;;;;;;28.60;12.07;;;8.90;89.70;;;;;;5028086;28;20033;-50
2020/12/09 01:18:15;;;;;;;31.27;12.25;;;8.90;89.70;;;;;;5024436;28;20021;-50
2020/12/09 01:20:42;;;;;;;29.77;12.15;;;8.90;89.60;;;;;;5022108;28;20053;-50
2020/12/09 01:23:07;;;;;;;38.15;12.10;;;8.90;89.60;;;;;;5021355;28;20029;-50
2020/12/09 01:25:33;;;;;;;33.47;11.75;;;8.90;89.60;;;;;;5023616;28;20037;-50
2020/12/09 01:28:03;;;;;;;27.90;10.10;;;8.90;89.60;;;;;;5026001;28;20474;-50
2020/12/09 01:30:30;;;;;;;27.33;10.43;;;8.90;89.60;;;;;;5023261;28;20116;-50
2020/12/09 01:32:56;;;;;;;29.80;10.40;;;8.80;89.60;;;;;;5021983;28;20518;-50
2020/12/09 01:35:22;;;;;;;28.50;9.75;;;8.90;89.70;;;;;;5025517;28;20075;-50
2020/12/09 01:37:49;;;;;;;31.08;11.98;;;8.90;90.20;;;;;;5027442;28;20113;-50
2020/12/09 01:40:16;;;;;;;25.45;10.07;;;8.90;89.80;;;;;;5024139;28;20032;-50
2020/12/09 01:42:41;;;;;;;26.88;9.52;;;8.90;89.80;;;;;;5018038;28;20473;-50
2020/12/09 01:45:07;;;;;;;26.30;10.05;;;8.90;89.70;;;;;;5022600;28;20093;-50
2020/12/09 01:47:33;;;;;;;28.38;9.40;;;8.90;89.70;;;;;;5018389;28;20025;-50
2020/12/09 01:49:59;;;;;;;26.25;10.35;;;8.90;89.70;;;;;;5022114;28;20057;-50
2020/12/09 01:52:26;;;;;;;24.88;9.93;;;8.90;89.70;;;;;;5027288;28;20034;-50
2020/12/09 01:54:53;;;;;;;30.48;10.05;;;8.90;89.80;;;;;;5032689;28;20026;-50
2020/12/09 01:57:19;;;;;;;24.00;9.70;;;8.90;89.60;;;;;;5033048;28;20470;-50
2020/12/09 01:59:44;;;;;;;29.05;10.68;;;8.80;89.60;;;;;;5024584;28;20030;-50
2020/12/09 02:02:10;;;;;;;26.55;9.25;;;8.90;89.80;;;;;;5017420;28;20422;-50
2020/12/09 02:04:37;;;;;;;23.20;9.02;;;8.90;89.90;;;;;;5032242;28;20030;-50
2020/12/09 02:07:03;;;;;;;27.10;9.25;;;8.90;89.80;;;;;;5034811;28;20029;-50
2020/12/09 02:09:29;;;;;;;29.92;10.52;;;8.90;90.00;;;;;;5018187;28;20415;-50
2020/12/09 02:11:56;;;;;;;26.95;10.48;;;8.90;90.00;;;;;;5035026;28;20474;-50
2020/12/09 02:14:22;;;;;;;29.30;10.68;;;8.80;89.70;;;;;;5044399;28;20398;-50
2020/12/09 02:16:52;;;;;;;26.23;9.95;;;8.80;90.20;;;;;;5032771;28;20084;-50
2020/12/09 02:19:19;;;;;;;22.70;8.73;;;8.90;89.80;;;;;;5023164;28;20470;-50
2020/12/09 02:21:45;;;;;;;21.90;9.65;;;8.80;89.60;;;;;;5037154;28;20509;-50
2020/12/09 02:24:11;;;;;;;28.08;9.75;;;8.90;89.90;;;;;;5028222;28;20030;-50
2020/12/09 02:26:41;;;;;;;28.60;10.88;;;8.80;89.80;;;;;;5017978;28;20080;-50
2020/12/09 02:29:07;;;;;;;31.48;11.32;;;8.90;89.80;;;;;;5028307;28;20025;-50
2020/12/09 02:31:33;;;;;;;27.40;9.88;;;8.90;89.80;;;;;;5035485;28;20493;-50
2020/12/09 02:33:58;;;;;;;31.10;11.23;;;8.90;89.80;;;;;;5036596;28;20029;-50
2020/12/09 02:36:24;;;;;;;25.23;10.15;;;8.80;89.80;;;;;;5043461;28;20041;-50
2020/12/09 02:38:51;;;;;;;23.67;9.40;;;8.90;89.80;;;;;;5018303;28;20026;-50
2020/12/09 02:41:16;;;;;;;26.67;10.60;;;8.90;89.90;;;;;;5017138;28;20044;-50
2020/12/09 02:43:42;;;;;;;25.08;9.75;;;8.80;89.80;;;;;;5031480;28;20439;-50
2020/12/09 02:46:07;;;;;;;36.40;11.27;;;8.90;89.80;;;;;;5017407;28;20034;-50
2020/12/09 02:48:33;;;;;;;32.42;10.93;;;8.90;89.80;;;;;;5017452;28;20018;-50
2020/12/09 02:50:59;;;;;;;28.27;10.57;;;8.80;89.80;;;;;;5021136;28;20040;-50
2020/12/09 02:53:24;;;;;;;34.75;11.88;;;8.90;89.80;;;;;;5028256;28;20045;-50
2020/12/09 02:55:50;;;;;;;25.52;10.55;;;8.90;89.80;;;;;;5037139;28;20060;-50
2020/12/09 02:58:15;;;;;;;32.33;10.00;;;8.80;89.70;;;;;;5020532;28;20455;-50
2020/12/09 03:00:41;;;;;;;26.38;10.52;;;8.80;89.60;;;;;;5017179;28;20026;-50
2020/12/09 03:03:07;;;;;;;26.08;10.18;;;8.90;89.90;;;;;;5021534;28;20029;-50
2020/12/09 03:05:32;;;;;;;25.95;9.38;;;8.80;89.90;;;;;;5017171;28;20412;-50
2020/12/09 03:07:58;;;;;;;25.15;9.73;;;8.90;90.20;;;;;;5031035;28;20021;-50
2020/12/09 03:10:23;;;;;;;29.52;10.68;;;8.90;89.70;;;;;;5036875;28;20025;-50
2020/12/09 03:12:49;;;;;;;30.48;10.77;;;8.80;89.80;;;;;;5050266;28;20028;-50
2020/12/09 03:15:15;;;;;;;31.23;11.60;;;8.90;89.80;;;;;;5036852;28;20454;-50
2020/12/09 03:17:40;;;;;;;27.15;10.35;;;8.90;89.80;;;;;;5035864;28;20021;-50
2020/12/09 03:20:06;;;;;;;31.48;11.65;;;8.90;89.80;;;;;;5035999;28;20026;-50
2020/12/09 03:22:31;;;;;;;27.67;10.52;;;8.80;89.70;;;;;;5036392;28;20026;-50
2020/12/09 03:24:57;;;;;;;26.10;10.13;;;8.90;89.80;;;;;;5035923;28;20116;-50
2020/12/09 03:27:23;;;;;;;25.75;10.73;;;8.90;89.80;;;;;;5036533;28;20347;-50
2020/12/09 03:29:48;;;;;;;27.33;10.40;;;8.90;89.90;;;;;;5043030;28;20041;-50
2020/12/09 03:32:14;;;;;;;26.08;9.55;;;8.80;89.80;;;;;;5024508;28;20030;-50
2020/12/09 03:34:39;;;;;;;31.50;10.30;;;8.80;89.70;;;;;;5027931;28;20044;-50
2020/12/09 03:37:05;;;;;;;30.23;10.32;;;8.90;89.80;;;;;;5043808;28;20056;-50
2020/12/09 03:39:31;;;;;;;32.33;11.32;;;8.90;89.90;;;;;;5029719;28;20132;-50
2020/12/09 03:41:56;;;;;;;28.13;10.90;;;8.90;89.70;;;;;;5031251;28;20029;-50
2020/12/09 03:44:22;;;;;;;29.60;10.07;;;8.80;89.70;;;;;;5036801;28;20022;-50
2020/12/09 03:46:48;;;;;;;31.63;10.50;;;8.80;89.80;;;;;;5016354;28;20486;-50
2020/12/09 03:49:13;;;;;;;22.88;8.48;;;8.80;89.80;;;;;;5029472;28;20056;-50
2020/12/09 03:51:39;;;;;;;23.40;9.65;;;8.90;89.80;;;;;;5035249;28;20028;-50
2020/12/09 03:54:04;;;;;;;27.55;9.73;;;8.90;89.90;;;;;;5029383;28;20029;-50
2020/12/09 03:56:30;;;;;;;20.65;8.38;;;8.90;89.80;;;;;;5022907;28;20107;-50
2020/12/09 03:58:56;;;;;;;19.58;8.27;;;8.80;89.70;;;;;;5039976;28;20522;-50
2020/12/09 04:01:21;;;;;;;25.17;9.18;;;8.90;90.00;;;;;;5015898;28;20018;-50
2020/12/09 04:03:47;;;;;;;24.67;8.95;;;8.90;89.80;;;;;;5016064;28;20026;-50
2020/12/09 04:06:13;;;;;;;27.67;9.38;;;8.90;89.80;;;;;;5031746;28;20021;-49
2020/12/09 04:08:38;;;;;;;27.08;8.98;;;8.90;89.80;;;;;;5015659;28;20072;-50
2020/12/09 04:11:04;;;;;;;20.38;8.68;;;8.90;89.80;;;;;;5015610;28;20351;-49
2020/12/09 04:13:30;;;;;;;22.27;9.63;;;8.90;89.80;;;;;;5021957;28;20021;-50
2020/12/09 04:15:56;;;;;;;26.85;9.95;;;8.80;89.90;;;;;;5034814;28;20477;-49
2020/12/09 04:18:21;;;;;;;21.45;9.55;;;8.80;89.80;;;;;;5032233;28;20033;-49
2020/12/09 04:20:47;;;;;;;18.90;8.88;;;8.90;89.80;;;;;;5033907;28;20029;-50
2020/12/09 04:23:12;;;;;;;26.48;9.93;;;8.80;89.70;;;;;;5015277;28;20026;-50
2020/12/09 04:25:38;;;;;;;28.45;10.05;;;8.90;89.80;;;;;;5030977;28;20029;-50
2020/12/09 04:28:04;;;;;;;29.02;10.82;;;8.90;89.90;;;;;;5035214;28;20048;-50
2020/12/09 04:30:29;;;;;;;21.23;9.18;;;8.90;89.90;;;;;;5034672;28;20359;-49
2020/12/09 04:32:55;;;;;;;26.50;9.45;;;8.90;89.80;;;;;;5035221;28;20033;-50
2020/12/09 04:35:20;;;;;;;22.02;8.55;;;8.90;89.90;;;;;;5033202;28;20381;-49
2020/12/09 04:37:46;;;;;;;28.50;10.25;;;8.90;89.80;;;;;;5027200;28;20366;-49
2020/12/09 04:40:12;;;;;;;23.63;9.02;;;8.90;89.80;;;;;;5025682;28;20025;-50
2020/12/09 04:42:38;;;;;;;26.25;9.50;;;8.90;89.80;;;;;;5035094;28;20052;-49
2020/12/09 04:45:05;;;;;;;29.73;9.38;;;8.90;89.90;;;;;;5023773;28;20352;-50
2020/12/09 04:47:45;;;;;;;21.90;7.97;;;8.90;89.80;;;;;;5015285;28;20443;-50
2020/12/09 04:50:13;;;;;;;26.38;10.07;;;8.90;90.00;;;;;;5022462;28;20061;-50
2020/12/09 04:53:00;;;;;;;21.75;8.10;;;8.90;89.90;;;;;;5033698;28;20032;-50
2020/12/09 04:55:26;;;;;;;20.70;9.10;;;8.80;90.00;;;;;;5025205;28;20033;-50
2020/12/09 04:58:13;;;;;;;25.10;8.93;;;8.80;89.80;;;;;;5027288;28;20029;-50
2020/12/09 05:00:45;;;;;;;23.80;8.48;;;8.90;89.90;;;;;;5023831;28;20485;-50
2020/12/09 05:03:19;;;;;;;22.60;9.00;;;8.90;90.00;;;;;;5035010;28;20041;-50
2020/12/09 05:05:47;;;;;;;17.60;6.93;;;8.80;89.80;;;;;;5031819;28;20336;-49
2020/12/09 05:08:21;;;;;;;17.02;6.82;;;8.80;89.90;;;;;;5028064;28;20362;-50
2020/12/09 05:10:49;;;;;;;26.70;9.38;;;8.90;90.00;;;;;;5027368;28;20037;-50
2020/12/09 05:13:27;;;;;;;20.60;8.63;;;8.90;89.90;;;;;;5032903;28;20358;-50
2020/12/09 05:15:57;;;;;;;20.60;8.13;;;8.90;89.90;;;;;;5030384;28;20447;-50
2020/12/09 05:18:41;;;;;;;26.23;8.90;;;8.90;90.00;;;;;;5023496;28;20029;-49
2020/12/09 05:21:18;;;;;;;19.45;7.32;;;8.90;90.00;;;;;;5025062;28;20033;-49
2020/12/09 05:23:53;;;;;;;22.63;8.55;;;8.90;89.90;;;;;;5032197;28;20029;-49
2020/12/09 05:26:21;;;;;;;23.95;8.10;;;8.80;90.00;;;;;;5015114;28;20062;-50
2020/12/09 05:28:48;;;;;;;20.75;8.52;;;8.90;89.90;;;;;;5019588;28;20028;-50
2020/12/09 05:31:21;;;;;;;22.75;8.77;;;8.90;90.00;;;;;;5014378;28;20034;-51
2020/12/09 05:33:47;;;;;;;18.73;8.18;;;8.90;89.90;;;;;;5033043;28;20033;-50
2020/12/09 05:36:13;;;;;;;19.27;7.63;;;8.90;89.80;;;;;;5036558;28;20406;-50
2020/12/09 05:38:39;;;;;;;19.70;8.68;;;8.90;89.90;;;;;;5038098;28;20072;-50
2020/12/09 05:41:12;;;;;;;20.80;7.90;;;8.90;89.90;;;;;;5038352;28;20036;-50
2020/12/09 05:43:45;;;;;;;20.63;7.18;;;8.90;89.80;;;;;;5028111;28;20021;-50
2020/12/09 05:46:11;;;;;;;17.23;7.45;;;8.90;89.80;;;;;;5023726;28;20029;-50
2020/12/09 05:48:37;;;;;;;23.17;8.43;;;8.90;89.80;;;;;;5027001;28;20022;-50
2020/12/09 05:51:03;;;;;;;21.25;8.43;;;8.90;89.80;;;;;;5026357;28;20026;-50
2020/12/09 05:53:34;;;;;;;20.38;8.25;;;8.90;89.90;;;;;;5034061;28;20394;-50
2020/12/09 05:56:17;;;;;;;22.40;8.75;;;8.90;89.70;;;;;;5027733;28;20048;-51
2020/12/09 05:58:44;;;;;;;23.15;9.20;;;8.90;89.90;;;;;;5029449;28;20120;-50
2020/12/09 06:01:13;;;;;;;22.85;8.70;;;8.90;90.00;;;;;;5030652;28;20068;-50
2020/12/09 06:03:56;;;;;;;25.20;9.27;;;8.90;89.70;;;;;;5025344;28;20344;-50
2020/12/09 06:06:27;;;;;;;28.10;9.45;;;8.90;89.90;;;;;;5017749;28;20096;-51
2020/12/09 06:08:59;;;;;;;22.02;8.52;;;8.90;89.90;;;;;;5027212;28;20336;-50
2020/12/09 06:11:30;;;;;;;25.83;9.48;;;9.00;89.90;;;;;;5020566;28;20025;-50
2020/12/09 06:13:55;;;;;;;;;;;8.90;89.70;;;;;;5030079;28;20025;-50
2020/12/09 06:16:22;;;;;;;25.33;8.55;;;8.90;90.00;;;;;;5030574;28;20240;-50
2020/12/09 06:18:54;;;;;;;18.92;8.05;;;8.90;89.70;;;;;;5020171;28;20151;-51
2020/12/09 06:21:21;;;;;;;20.27;8.27;;;8.90;89.70;;;;;;5020257;28;20036;-53
2020/12/09 06:23:48;;;;;;;22.40;8.70;;;8.90;90.10;;;;;;5021649;28;20451;-53
2020/12/09 06:26:15;;;;;;;26.27;9.57;;;8.90;89.80;;;;;;5027057;28;20026;-53
2020/12/09 06:28:47;;;;;;;23.08;8.88;;;8.90;89.20;;;;;;5024880;28;20067;-53
2020/12/09 06:31:16;;;;;;;29.50;9.43;;;8.90;89.10;;;;;;5028910;28;20029;-53
2020/12/09 06:33:53;;;;;;;17.92;8.35;;;8.90;88.90;;;;;;5028362;28;20048;-53
2020/12/09 06:36:21;;;;;;;22.80;7.60;;;8.90;88.80;;;;;;5025502;28;20363;-53
2020/12/09 06:39:08;;;;;;;24.42;9.30;;;8.90;88.60;;;;;;5025881;28;20040;-53
2020/12/09 06:41:35;;;;;;;21.80;9.55;;;8.80;88.50;;;;;;5025696;28;20038;-53
2020/12/09 06:44:02;;;;;;;20.75;9.55;;;8.80;88.60;;;;;;5024614;28;20034;-53
2020/12/09 06:46:47;;;;;;;30.40;9.95;;;8.80;88.50;;;;;;5027281;28;20040;-54
2020/12/09 06:49:28;;;;;;;34.50;11.05;;;8.90;88.50;;;;;;5029592;28;20030;-53
2020/12/09 06:51:55;;;;;;;28.30;9.80;;;8.90;88.50;;;;;;5024260;28;20032;-54
2020/12/09 06:54:21;;;;;;;26.13;10.30;;;8.80;88.30;;;;;;5034845;28;20037;-53
2020/12/09 06:57:13;;;;;;;28.60;9.55;;;8.90;88.50;;;;;;5031282;28;20398;-53
2020/12/09 06:59:38;;;;;;;25.35;9.07;;;8.80;88.30;;;;;;5024800;28;20018;-53
2020/12/09 07:02:05;;;;;;;27.27;9.95;;;8.80;88.30;;;;;;5035710;28;20065;-53
2020/12/09 07:04:53;;;;;;;22.95;8.98;;;8.90;88.30;;;;;;5034511;28;20060;-53
2020/12/09 07:07:33;;;;;;;20.75;8.30;;;8.80;88.30;;;;;;5025802;28;20076;-53
2020/12/09 07:10:01;;;;;;;17.40;7.82;;;8.80;88.30;;;;;;5035675;28;20029;-53
2020/12/09 07:12:27;;;;;;;22.67;8.73;;;8.80;88.20;;;;;;5036679;28;20040;-53
2020/12/09 07:14:55;;;;;;;17.52;6.93;;;8.80;88.20;;;;;;5031393;28;20026;-53
2020/12/09 07:17:26;;;;;;;17.33;7.25;;;8.80;88.20;;;;;;5016798;28;20092;-53
2020/12/09 07:19:52;;;;;;;20.15;7.70;;;8.80;88.10;;;;;;5016937;28;20022;-53
2020/12/09 07:22:19;;;;;;;19.38;8.18;;;8.80;88.10;;;;;;5016644;28;20057;-53
2020/12/09 07:24:45;;;;;;;20.15;8.10;;;8.80;88.10;;;;;;5020185;28;20359;-54
2020/12/09 07:27:12;;;;;;;24.70;9.02;;;8.80;88.10;;;;;;5036324;28;20029;-53
2020/12/09 07:29:41;;;;;;;18.38;8.02;;;8.80;88.00;;;;;;5036399;28;20455;-53
2020/12/09 07:32:08;;;;;;;15.20;7.65;;;8.80;88.20;;;;;;5036272;28;20036;-53
2020/12/09 07:34:54;;;;;;;14.57;7.38;;;8.80;88.10;;;;;;5034510;28;20025;-53
2020/12/09 07:37:23;;;;;;;19.95;7.85;;;8.80;88.00;;;;;;5016342;28;20089;-53
2020/12/09 07:39:50;;;;;;;19.95;8.15;;;8.80;88.00;;;;;;5016622;28;20030;-53
2020/12/09 07:42:16;;;;;;;20.77;8.38;;;8.80;87.90;;;;;;5016187;28;20068;-54
2020/12/09 07:44:43;;;;;;;19.58;7.55;;;8.80;88.00;;;;;;5018968;28;20057;-53
2020/12/09 07:47:10;;;;;;;22.13;7.93;;;8.80;88.00;;;;;;5036019;28;20029;-53
2020/12/09 07:49:36;;;;;;;19.90;8.43;;;8.80;87.80;;;;;;5026452;28;20073;-53
2020/12/09 07:52:22;;;;;;;23.08;8.20;;;8.80;87.80;;;;;;5015858;28;20050;-54
2020/12/09 07:54:50;;;;;;;19.05;7.82;;;8.80;88.00;;;;;;5019381;28;20033;-53
2020/12/09 07:57:15;;;;;;;25.30;8.35;;;8.80;87.90;;;;;;5035805;28;20034;-53
2020/12/09 07:59:41;;;;;;;22.77;9.30;;;8.80;87.80;;;;;;5035091;28;20048;-53
2020/12/09 08:02:23;;;;;;;20.35;7.88;;;8.90;87.90;;;;;;5035040;28;20053;-53
2020/12/09 08:05:31;;;;;;;19.13;7.15;;;8.80;87.70;;;;;;5019205;28;20069;-53
2020/12/09 08:07:58;;;;;;;21.30;9.05;;;8.80;87.80;;;;;;5022223;28;20517;-53
2020/12/09 08:10:29;;;;;;;16.42;7.65;;;8.80;87.70;;;;;;5015783;28;20040;-53
2020/12/09 08:13:07;;;;;;;21.30;8.55;;;8.80;87.60;;;;;;5016069;28;20030;-53
2020/12/09 08:15:34;;;;;;;26.40;9.18;;;8.90;87.80;;;;;;5026398;28;20037;-53
2020/12/09 08:18:01;;;;;;;21.52;7.63;;;8.80;87.70;;;;;;5035503;28;20041;-53
2020/12/09 08:20:26;;;;;;;21.65;8.52;;;8.80;87.60;;;;;;5035120;28;20080;-53
2020/12/09 08:22:54;;;;;;;20.58;7.43;;;8.80;88.40;;;;;;5035274;28;20065;-53
2020/12/09 08:25:20;;;;;;;21.77;7.53;;;8.90;87.60;;;;;;5024827;28;20469;-53
2020/12/09 08:27:48;;;;;;;19.88;8.48;;;8.80;87.80;;;;;;5031516;28;20099;-53
2020/12/09 08:30:24;;;;;;;21.85;9.15;;;8.80;87.60;;;;;;5035105;28;20057;-53
2020/12/09 08:33:05;;;;;;;34.70;13.10;;;8.80;87.80;;;;;;5031729;28;20468;-53
2020/12/09 08:36:00;;;;;;;;;;;8.80;87.50;;;;;;5024209;28;20034;-53
2020/12/09 08:38:30;;;;;;;18.48;8.38;;;8.80;87.50;;;;;;5021694;28;19914;-53
2020/12/09 08:40:58;;;;;;;21.33;8.52;;;8.90;87.50;;;;;;5015494;28;20025;-53
2020/12/09 08:43:25;;;;;;;21.45;8.70;;;8.80;87.50;;;;;;5015218;28;20459;-53
2020/12/09 08:45:52;;;;;;;22.88;8.80;;;8.80;87.50;;;;;;5044267;28;20409;-53
2020/12/09 08:48:19;;;;;;;25.95;8.65;;;8.90;87.70;;;;;;5035169;28;20362;-53
2020/12/09 08:50:48;;;;;;;25.95;9.60;;;8.90;87.50;;;;;;5035006;28;20029;-53
2020/12/09 08:53:14;;;;;;;27.13;9.53;;;8.90;87.70;;;;;;5034861;28;20037;-54
2020/12/09 08:55:42;;;;;;;54.03;15.70;;;8.90;87.70;;;;;;5022298;28;20038;-53
2020/12/09 08:58:11;;;;;;;35.47;13.27;;;8.90;87.60;;;;;;5014929;28;20084;-53
2020/12/09 09:00:39;;;;;;;29.02;9.77;;;8.90;87.60;;;;;;5034096;28;20044;-53
2020/12/09 09:03:06;;;;;;;21.88;8.00;;;8.90;87.50;;;;;;5034971;28;20018;-53
2020/12/09 09:05:32;;;;;;;18.65;8.75;;;8.90;87.50;;;;;;5023980;28;20038;-53
2020/12/09 09:07:58;;;;;;;14.80;7.22;;;8.90;87.70;;;;;;5022785;28;20029;-53
2020/12/09 09:10:24;;;;;;;22.27;8.05;;;8.90;87.50;;;;;;5016242;28;20117;-53
2020/12/09 09:12:50;;;;;;;16.75;7.70;;;8.80;87.50;;;;;;5034427;28;20033;-53
2020/12/09 09:15:17;;;;;;;20.52;8.20;;;8.90;87.40;;;;;;5034201;28;20451;-53
2020/12/09 09:17:42;;;;;;;18.88;7.47;;;8.80;87.30;;;;;;5034609;28;20045;-53
2020/12/09 09:20:08;;;;;;;17.27;7.40;;;8.90;87.60;;;;;;5034481;28;20026;-54
2020/12/09 09:22:33;;;;;;;17.63;8.68;;;8.90;87.60;;;;;;5014965;28;20030;-53
2020/12/09 09:24:59;;;;;;;24.08;9.55;;;8.90;87.60;;;;;;5014670;28;20452;-54
2020/12/09 09:27:25;;;;;;;23.95;8.90;;;8.90;87.50;;;;;;5014626;28;20018;-53
2020/12/09 09:29:51;;;;;;;21.23;8.02;;;8.90;87.40;;;;;;5014942;28;20359;-53
2020/12/09 09:32:17;;;;;;;14.77;7.70;;;8.80;87.50;;;;;;5015629;28;20400;-53
2020/12/09 09:34:43;;;;;;;16.50;7.32;;;8.90;87.30;;;;;;5014661;28;20121;-53
2020/12/09 09:37:10;;;;;;;18.23;8.05;;;8.90;87.50;;;;;;5014563;28;20037;-53
2020/12/09 09:39:36;;;;;;;21.40;8.65;;;8.90;87.30;;;;;;5014721;28;20347;-53
2020/12/09 09:42:03;;;;;;;17.67;8.90;;;8.90;87.40;;;;;;5030486;28;20036;-53
2020/12/09 09:44:29;;;;;;;20.80;9.40;;;8.90;87.40;;;;;;5034096;28;20052;-53
2020/12/09 09:46:59;;;;;;;21.83;8.18;;;8.90;87.40;;;;;;5034597;28;20358;-53
2020/12/09 09:49:25;;;;;;;19.33;8.45;;;8.90;87.40;;;;;;5034415;28;20022;-54
2020/12/09 09:51:54;;;;;;;20.90;8.15;;;8.90;87.30;;;;;;5019238;28;20040;-54
2020/12/09 09:54:20;;;;;;;21.95;8.35;;;8.90;87.60;;;;;;5014264;28;20026;-53
2020/12/09 09:56:46;;;;;;;22.70;8.27;;;8.90;87.10;;;;;;5016182;28;20033;-53
2020/12/09 09:59:12;;;;;;;16.67;7.43;;;8.90;87.50;;;;;;5014626;28;20456;-53
2020/12/09 10:01:37;;;;;;;17.42;7.25;;;8.90;87.30;;;;;;5029060;28;20033;-53
2020/12/09 10:04:06;;;;;;;20.08;9.00;;;8.90;87.40;;;;;;5034195;28;20029;-53
2020/12/09 10:06:32;;;;;;;18.35;7.60;;;8.90;87.40;;;;;;5030376;28;20036;-53
2020/12/09 10:08:58;;;;;;;21.40;8.25;;;8.90;87.40;;;;;;5014154;28;20030;-53
2020/12/09 10:11:24;;;;;;;29.08;9.50;;;8.90;87.50;;;;;;5026822;28;20111;-53
2020/12/09 10:13:50;;;;;;;21.35;8.98;;;8.90;87.30;;;;;;5034113;28;20021;-53
2020/12/09 10:16:25;;;;;;;29.42;10.05;;;8.90;87.30;;;;;;5033969;28;20045;-53
2020/12/09 10:18:51;;;;;;;28.60;10.65;;;8.90;87.30;;;;;;5033882;28;20401;-53
2020/12/09 10:21:27;;;;;;;27.45;10.85;;;8.90;87.50;;;;;;5033069;28;20036;-53
2020/12/09 10:23:53;;;;;;;23.92;9.60;;;8.90;87.10;;;;;;5037722;28;20029;-53
2020/12/09 10:26:25;;;;;;;25.33;10.60;;;8.90;87.30;;;;;;5018840;28;20044;-53
2020/12/09 10:28:51;;;;;;;18.80;6.85;;;8.90;87.20;;;;;;5018037;28;20041;-53
2020/12/09 10:31:16;;;;;;;12.68;6.10;;;8.90;87.10;;;;;;5017967;28;20030;-53
2020/12/09 10:33:42;;;;;;;12.90;6.07;;;8.90;87.30;;;;;;5017945;28;20033;-53
2020/12/09 10:36:07;;;;;;;14.43;6.30;;;8.90;87.10;;;;;;5017458;28;20053;-53
2020/12/09 10:38:33;;;;;;;13.07;5.68;;;8.90;87.40;;;;;;5017920;28;20022;-53
2020/12/09 10:40:59;;;;;;;14.85;6.80;;;8.90;87.00;;;;;;5025835;28;20342;-53
2020/12/09 10:43:25;;;;;;;16.20;5.93;;;8.90;87.10;;;;;;5037521;28;20034;-53
2020/12/09 10:45:51;;;;;;;13.50;6.18;;;9.00;87.20;;;;;;5037046;28;20071;-53
2020/12/09 10:48:17;;;;;;;11.57;5.28;;;9.00;87.30;;;;;;5037441;28;20401;-53
2020/12/09 10:50:43;;;;;;;10.63;5.10;;;8.90;87.20;;;;;;5030446;28;20041;-54
2020/12/09 10:53:09;;;;;;;13.32;4.30;;;8.90;87.10;;;;;;5017476;28;20092;-53
2020/12/09 10:55:36;;;;;;;11.27;5.30;;;8.90;87.30;;;;;;5017416;28;20367;-53
2020/12/09 10:58:02;;;;;;;8.02;4.60;;;8.90;87.20;;;;;;5017295;28;20362;-53
2020/12/09 11:00:28;;;;;;;8.63;4.45;;;9.00;87.20;;;;;;5020204;28;20025;-53
2020/12/09 11:02:54;;;;;;;8.95;4.32;;;9.00;87.20;;;;;;5037649;28;20025;-53
2020/12/09 11:05:19;;;;;;;8.52;5.20;;;8.90;87.20;;;;;;5036474;28;20052;-53
2020/12/09 11:07:45;;;;;;;7.75;4.47;;;8.90;87.10;;;;;;5024620;28;20030;-53
2020/12/09 11:10:11;;;;;;;11.65;5.30;;;8.90;87.20;;;;;;5017897;28;20026;-53
2020/12/09 11:12:36;;;;;;;12.57;4.93;;;9.00;87.30;;;;;;5036749;28;20083;-53
2020/12/09 11:15:03;;;;;;;12.57;5.55;;;9.00;87.20;;;;;;5036605;28;20443;-53
2020/12/09 11:17:28;;;;;;;10.70;5.40;;;9.00;87.10;;;;;;5037162;28;20117;-54
2020/12/09 11:19:54;;;;;;;12.85;4.68;;;9.00;87.20;;;;;;5020247;28;20072;-53
2020/12/09 11:22:20;;;;;;;11.85;5.95;;;9.00;87.20;;;;;;5034790;28;20048;-53
2020/12/09 11:24:45;;;;;;;10.60;5.25;;;9.00;87.00;;;;;;5036155;28;20068;-53
2020/12/09 11:27:11;;;;;;;9.98;5.38;;;9.00;87.10;;;;;;5035458;28;20065;-53
2020/12/09 11:29:38;;;;;;;9.57;4.10;;;9.00;87.00;;;;;;5036498;28;20024;-53
2020/12/09 11:32:03;;;;;;;11.52;4.60;;;8.90;87.20;;;;;;5020213;28;20467;-53
2020/12/09 11:34:29;;;;;;;11.85;4.80;;;8.90;87.10;;;;;;5015685;28;20045;-53
2020/12/09 11:37:03;;;;;;;9.30;4.88;;;9.00;87.40;;;;;;5016794;28;20371;-53
2020/12/09 11:39:28;;;;;;;11.52;4.90;;;9.00;87.00;;;;;;5016785;28;20053;-53
2020/12/09 11:41:58;;;;;;;7.22;4.22;;;9.00;87.20;;;;;;5030237;28;20505;-53
2020/12/09 11:44:24;;;;;;;6.10;3.88;;;9.00;87.20;;;;;;5036256;28;20100;-53
2020/12/09 11:46:50;;;;;;;6.38;4.05;;;9.00;87.10;;;;;;5020058;28;20120;-53
2020/12/09 11:49:15;;;;;;;10.93;4.38;;;8.90;86.90;;;;;;5016408;28;20036;-53
2020/12/09 11:51:41;;;;;;;16.50;5.78;;;9.00;87.20;;;;;;5031309;28;20034;-53
2020/12/09 11:54:07;;;;;;;9.63;3.90;;;9.00;87.00;;;;;;5036025;28;20462;-53
2020/12/09 11:56:32;;;;;;;10.10;4.78;;;9.00;87.20;;;;;;5036042;28;20025;-53
2020/12/09 11:58:59;;;;;;;12.05;5.45;;;9.00;87.10;;;;;;5035985;28;20028;-53
2020/12/09 12:01:24;;;;;;;12.30;5.28;;;9.00;87.20;;;;;;5022555;28;20033;-53
2020/12/09 12:03:50;;;;;;;9.60;5.07;;;9.00;87.40;;;;;;5016113;28;20022;-53
2020/12/09 12:06:22;;;;;;;11.20;5.43;;;9.00;87.20;;;;;;5016616;28;20022;-53
2020/12/09 12:08:51;;;;;;;8.95;5.18;;;9.00;87.00;;;;;;5035859;28;20029;-53
2020/12/09 12:11:18;;;;;;;11.15;5.20;;;9.00;87.10;;;;;;5034757;28;20057;-53
2020/12/09 12:13:45;;;;;;;14.73;5.55;;;9.00;87.20;;;;;;5028549;28;20068;-53
2020/12/09 12:16:21;;;;;;;9.77;5.05;;;9.00;87.10;;;;;;5016690;28;20038;-53
2020/12/09 12:18:47;;;;;;;14.40;6.68;;;8.90;87.10;;;;;;5015891;28;20029;-53
2020/12/09 12:21:14;;;;;;;12.90;5.68;;;8.90;86.90;;;;;;5015660;28;20030;-53
2020/12/09 12:23:40;;;;;;;15.07;7.18;;;8.90;87.10;;;;;;5021581;28;20075;-53
2020/12/09 12:26:06;;;;;;;13.30;5.63;;;8.90;87.20;;;;;;5035463;28;20022;-53
2020/12/09 12:28:32;;;;;;;9.85;4.90;;;8.90;87.00;;;;;;5035191;28;20041;-53
2020/12/09 12:30:58;;;;;;;13.80;4.78;;;8.90;87.10;;;;;;5035345;28;20064;-53
2020/12/09 12:33:24;;;;;;;13.95;6.03;;;8.90;87.10;;;;;;5031790;28;20072;-53
2020/12/09 12:35:50;;;;;;;9.43;5.07;;;8.90;87.10;;;;;;5015393;28;20026;-53
2020/12/09 12:38:15;;;;;;;15.60;4.85;;;8.90;87.00;;;;;;5015631;28;20030;-53
2020/12/09 12:40:41;;;;;;;15.27;6.38;;;8.90;87.00;;;;;;5015177;28;20348;-53
2020/12/09 12:43:07;;;;;;;8.98;4.82;;;8.90;87.10;;;;;;5032632;28;20045;-54
2020/12/09 12:45:32;;;;;;;15.10;7.53;;;8.90;86.90;;;;;;5015036;28;20458;-53
2020/12/09 12:47:58;;;;;;;15.15;6.82;;;8.90;86.90;;;;;;5015330;28;20030;-53
2020/12/09 12:50:23;;;;;;;14.70;5.50;;;8.90;87.80;;;;;;5014951;28;20022;-53